Time;durP1;ratioP1;P1;durP2;ratioP2;P2;SDS_P1;SDS_P2;PMS_P1;PMS_P2;Temp;Humidity;BMP_temperature;BMP_pressure;BME280_temperature;BME280_humidity;BME280_pressure;Samples;Min_cycle;Max_cycle;Signal;HPM_P1;HPM_P2
2023/12/21 00:00:49;;;;;;;96.30;67.27;;;;;;;0.73;74.24;94329.72;4987979;28;20192;-69
2023/12/21 00:03:17;;;;;;;91.60;63.20;;;;;;;0.83;73.73;94335.91;4991672;28;20184;-69
2023/12/21 00:05:43;;;;;;;88.27;57.10;;;;;;;0.90;73.68;94327.69;4967587;28;20228;-69
2023/12/21 00:08:08;;;;;;;88.07;62.43;;;;;;;0.87;73.71;94326.13;4965853;28;20292;-69
2023/12/21 00:10:33;;;;;;;92.10;60.33;;;;;;;0.84;73.13;94327.19;4990525;28;20234;-69
2023/12/21 00:12:59;;;;;;;88.97;62.83;;;;;;;0.88;73.06;94335.53;4985894;28;20195;-69
2023/12/21 00:15:24;;;;;;;92.13;55.00;;;;;;;0.81;73.37;94332.59;4981507;28;20180;-69
2023/12/21 00:17:49;;;;;;;83.37;60.50;;;;;;;0.89;73.52;94332.03;4998964;28;20223;-68
2023/12/21 00:20:16;;;;;;;85.33;58.97;;;;;;;0.96;73.07;94340.16;4979644;28;20235;-69
2023/12/21 00:22:41;;;;;;;83.77;52.43;;;;;;;0.89;73.48;94339.81;4981082;28;20216;-68
2023/12/21 00:25:07;;;;;;;81.33;54.97;;;;;;;0.80;73.16;94336.13;4963233;28;20226;-69
2023/12/21 00:27:33;;;;;;;86.47;55.00;;;;;;;0.86;73.29;94340.03;4975881;28;20196;-69
2023/12/21 00:29:58;;;;;;;82.23;52.93;;;;;;;0.90;72.92;94349.22;4971918;28;20227;-70
2023/12/21 00:32:23;;;;;;;86.77;60.77;;;;;;;0.83;73.01;94343.66;4977590;28;20247;-70
2023/12/21 00:34:49;;;;;;;97.97;67.67;;;;;;;0.72;73.55;94355.69;4971521;28;20318;-70
2023/12/21 00:37:15;;;;;;;103.80;68.63;;;;;;;0.74;73.87;94351.25;4970648;28;20301;-70
2023/12/21 00:39:41;;;;;;;98.97;64.47;;;;;;;0.65;73.74;94357.91;5005492;28;20262;-68
2023/12/21 00:42:06;;;;;;;107.63;70.63;;;;;;;0.68;73.76;94357.69;4960805;28;20343;-69
2023/12/21 00:44:32;;;;;;;107.83;66.00;;;;;;;0.62;73.73;94368.47;4977331;28;20219;-69
2023/12/21 00:46:57;;;;;;;103.90;65.50;;;;;;;0.63;73.91;94377.88;4977558;28;20226;-69
2023/12/21 00:49:22;;;;;;;110.33;68.43;;;;;;;0.64;73.57;94379.50;4968214;28;20275;-69
2023/12/21 00:51:48;;;;;;;110.13;67.20;;;;;;;0.54;73.82;94391.47;4989576;28;20192;-69
2023/12/21 00:54:13;;;;;;;103.60;66.90;;;;;;;0.64;73.54;94387.28;4990386;28;20199;-69
2023/12/21 00:56:39;;;;;;;98.03;64.03;;;;;;;0.60;74.15;94378.09;4992117;28;20230;-69
2023/12/21 00:59:04;;;;;;;100.87;61.57;;;;;;;0.59;74.12;94376.44;4998894;28;20223;-71
2023/12/21 01:01:30;;;;;;;94.20;63.10;;;;;;;0.39;74.65;94372.66;4983499;28;20219;-70
2023/12/21 01:03:55;;;;;;;99.33;63.07;;;;;;;0.62;74.24;94381.41;4980160;28;20203;-68
2023/12/21 01:06:20;;;;;;;95.53;61.57;;;;;;;0.53;74.43;94374.28;4988753;28;20246;-69
2023/12/21 01:08:46;;;;;;;92.33;62.20;;;;;;;0.61;74.22;94377.16;4987734;28;20258;-69
2023/12/21 01:11:11;;;;;;;92.80;60.57;;;;;;;0.67;74.15;94376.75;4985809;28;20286;-69
2023/12/21 01:13:37;;;;;;;94.43;61.37;;;;;;;0.72;74.05;94376.38;4988695;28;20274;-69
2023/12/21 01:16:03;;;;;;;89.10;59.73;;;;;;;0.63;73.70;94383.03;5006572;28;20218;-70
2023/12/21 01:18:29;;;;;;;90.67;59.53;;;;;;;0.71;73.83;94372.16;4986574;28;20185;-69
2023/12/21 01:20:54;;;;;;;91.13;60.33;;;;;;;0.72;73.69;94369.44;4982517;28;20220;-69
2023/12/21 01:23:20;;;;;;;85.67;56.10;;;;;;;0.58;73.77;94367.84;4991253;28;20220;-69
2023/12/21 01:25:45;;;;;;;88.47;57.70;;;;;;;0.58;73.82;94377.38;4981792;28;20231;-69
2023/12/21 01:28:10;;;;;;;88.80;58.07;;;;;;;0.68;73.49;94365.44;4994387;28;20231;-69
2023/12/21 01:30:36;;;;;;;93.53;57.33;;;;;;;0.71;73.25;94367.00;4989174;28;20197;-69
2023/12/21 01:33:01;;;;;;;82.67;55.80;;;;;;;0.54;73.60;94378.53;4988517;28;20313;-69
2023/12/21 01:35:27;;;;;;;81.90;55.40;;;;;;;0.64;74.09;94366.56;4988718;28;20219;-69
2023/12/21 01:37:52;;;;;;;83.00;55.33;;;;;;;0.53;74.02;94359.56;5006405;28;20314;-69
2023/12/21 01:40:18;;;;;;;84.37;55.57;;;;;;;0.62;73.88;94363.28;4984706;28;20222;-69
2023/12/21 01:42:43;;;;;;;86.17;54.97;;;;;;;0.69;73.96;94361.91;4986133;28;20266;-69
2023/12/21 01:45:09;;;;;;;77.60;48.00;;;;;;;0.65;73.94;94365.66;4984470;28;20223;-69
2023/12/21 01:47:35;;;;;;;73.60;47.03;;;;;;;0.69;73.82;94354.16;4983744;28;20226;-70
2023/12/21 01:50:01;;;;;;;73.20;50.17;;;;;;;0.64;74.01;94346.72;4991529;28;20230;-69
2023/12/21 01:52:28;;;;;;;66.13;49.33;;;;;;;0.74;74.24;94346.88;4993526;28;20230;-69
2023/12/21 01:54:54;;;;;;;68.97;43.67;;;;;;;0.69;74.07;94358.50;4984318;28;20202;-69
2023/12/21 01:57:19;;;;;;;65.87;42.63;;;;;;;0.82;74.23;94357.50;4974453;28;20258;-69
2023/12/21 01:59:45;;;;;;;63.53;41.00;;;;;;;0.85;74.20;94334.00;4990129;28;20221;-69
2023/12/21 02:02:11;;;;;;;66.20;42.43;;;;;;;0.83;74.49;94335.06;4986356;28;20277;-69
2023/12/21 02:04:36;;;;;;;62.07;42.70;;;;;;;0.93;74.33;94343.00;4986647;28;20222;-69
2023/12/21 02:07:02;;;;;;;57.67;39.43;;;;;;;0.99;73.84;94338.22;5000625;28;20230;-69
2023/12/21 02:09:27;;;;;;;60.03;41.00;;;;;;;0.85;74.77;94336.59;4987157;28;20190;-70
2023/12/21 02:11:52;;;;;;;64.53;46.10;;;;;;;0.88;74.44;94346.75;4989490;28;20224;-69
2023/12/21 02:14:18;;;;;;;56.67;38.17;;;;;;;0.92;74.89;94346.53;4986039;28;20235;-69
2023/12/21 02:16:55;;;;;;;61.37;40.40;;;;;;;1.00;74.75;94344.22;4992939;28;20253;-69
2023/12/21 02:19:21;;;;;;;58.93;40.33;;;;;;;1.09;74.60;94351.28;4991475;28;20290;-69
2023/12/21 02:21:49;;;;;;;59.87;39.77;;;;;;;1.07;74.21;94348.03;4982482;28;20219;-69
2023/12/21 02:24:15;;;;;;;61.03;40.90;;;;;;;1.12;74.11;94342.47;4990849;28;20238;-69
2023/12/21 02:26:42;;;;;;;59.83;40.30;;;;;;;1.18;74.23;94350.66;4992703;28;20226;-69
2023/12/21 02:29:07;;;;;;;52.93;38.57;;;;;;;1.23;74.59;94340.78;4996066;28;20233;-69
2023/12/21 02:31:33;;;;;;;53.33;37.83;;;;;;;1.31;75.01;94341.03;4993436;28;20223;-69
2023/12/21 02:33:58;;;;;;;50.40;36.87;;;;;;;1.42;75.37;94340.25;4989653;28;20226;-69
2023/12/21 02:36:24;;;;;;;46.27;33.43;;;;;;;1.48;76.73;94336.38;4986168;28;20195;-69
2023/12/21 02:38:49;;;;;;;46.77;34.80;;;;;;;1.48;78.40;94344.16;4982360;28;20227;-70
2023/12/21 02:41:14;;;;;;;49.00;35.70;;;;;;;1.56;78.55;94347.00;4985420;28;20249;-70
2023/12/21 02:43:40;;;;;;;46.63;35.17;;;;;;;1.63;78.25;94352.53;4992139;28;20242;-70
2023/12/21 02:46:05;;;;;;;44.00;34.53;;;;;;;1.65;78.74;94348.91;4982739;28;20239;-69
2023/12/21 02:48:32;;;;;;;46.70;36.30;;;;;;;1.74;78.73;94342.22;4988449;28;20215;-70
2023/12/21 02:50:59;;;;;;;43.97;34.23;;;;;;;1.76;78.76;94359.31;4985101;28;20231;-70
2023/12/21 02:53:25;;;;;;;46.10;35.43;;;;;;;1.80;79.01;94359.91;4990022;28;20310;-70
2023/12/21 02:55:50;;;;;;;44.23;34.57;;;;;;;1.81;78.40;94356.34;4986202;28;20246;-70
2023/12/21 02:58:16;;;;;;;46.83;35.03;;;;;;;1.80;78.89;94359.06;4992279;28;20250;-70
2023/12/21 03:00:41;;;;;;;46.93;34.57;;;;;;;1.91;78.56;94359.09;4990925;28;20191;-70
2023/12/21 03:03:07;;;;;;;43.40;34.20;;;;;;;1.90;78.07;94352.28;4984286;28;20366;-70
2023/12/21 03:05:32;;;;;;;39.60;31.70;;;;;;;1.95;78.06;94350.13;5002254;28;20318;-70
2023/12/21 03:07:57;;;;;;;40.77;32.43;;;;;;;2.02;78.05;94340.13;4984982;28;20235;-70
2023/12/21 03:10:23;;;;;;;39.77;31.50;;;;;;;1.96;78.24;94349.19;4983176;28;20330;-70
2023/12/21 03:12:49;;;;;;;38.80;30.80;;;;;;;1.97;79.11;94350.84;4985313;28;20195;-70
2023/12/21 03:15:14;;;;;;;32.67;25.97;;;;;;;2.09;78.96;94349.09;4992074;28;20279;-69
2023/12/21 03:17:39;;;;;;;31.73;25.77;;;;;;;2.10;78.89;94354.16;4980013;28;20222;-70
2023/12/21 03:20:07;;;;;;;29.50;24.73;;;;;;;2.13;78.88;94353.09;4985225;28;20235;-70
2023/12/21 03:22:34;;;;;;;27.03;22.37;;;;;;;2.16;79.31;94343.31;4986023;28;20227;-69
2023/12/21 03:24:59;;;;;;;25.67;20.60;;;;;;;2.15;78.97;94346.84;4984000;28;20191;-69
2023/12/21 03:27:25;;;;;;;19.40;16.50;;;;;;;2.33;78.88;94359.38;4984929;28;20199;-70
2023/12/21 03:29:50;;;;;;;19.77;15.43;;;;;;;2.33;78.19;94364.56;4987685;28;20305;-69
2023/12/21 03:32:16;;;;;;;17.40;14.63;;;;;;;2.37;77.88;94366.78;4987431;28;20227;-69
2023/12/21 03:34:41;;;;;;;16.33;13.63;;;;;;;2.41;77.32;94364.78;4986381;28;20262;-69
2023/12/21 03:37:07;;;;;;;16.90;13.80;;;;;;;2.52;77.41;94385.53;4988819;28;20227;-69
2023/12/21 03:39:33;;;;;;;16.20;12.40;;;;;;;2.64;76.51;94376.78;4987602;28;20171;-69
2023/12/21 03:41:59;;;;;;;16.90;15.10;;;;;;;2.58;76.51;94372.06;4984355;28;20306;-70
2023/12/21 03:44:25;;;;;;;19.13;16.37;;;;;;;2.70;76.62;94372.06;4974914;28;20224;-70
2023/12/21 03:46:50;;;;;;;21.40;18.07;;;;;;;2.81;76.46;94374.66;4975433;28;20246;-70
2023/12/21 03:49:16;;;;;;;23.10;19.10;;;;;;;2.67;76.32;94369.72;4986127;28;20277;-70
2023/12/21 03:51:42;;;;;;;22.87;19.57;;;;;;;2.80;76.13;94368.63;4984527;28;20278;-68
2023/12/21 03:54:07;;;;;;;21.70;18.63;;;;;;;2.77;75.81;94362.84;4987251;28;20230;-68
2023/12/21 03:56:33;;;;;;;23.27;19.30;;;;;;;2.75;75.87;94380.31;4980300;28;20219;-69
2023/12/21 03:58:58;;;;;;;20.60;17.20;;;;;;;2.82;75.54;94374.53;4981440;28;20223;-69
2023/12/21 04:01:29;;;;;;;20.57;17.17;;;;;;;2.82;75.58;94366.75;4989394;28;20244;-69
2023/12/21 04:03:55;;;;;;;19.80;16.63;;;;;;;2.76;76.16;94362.03;4967812;28;20188;-69
2023/12/21 04:06:20;;;;;;;17.93;15.47;;;;;;;2.84;75.45;94374.41;5001286;28;20246;-69
2023/12/21 04:08:46;;;;;;;19.90;17.10;;;;;;;2.87;75.42;94371.56;4988736;28;20231;-69
2023/12/21 04:11:11;;;;;;;18.97;15.93;;;;;;;2.88;75.49;94376.63;4972903;28;20222;-69
2023/12/21 04:13:37;;;;;;;18.27;15.13;;;;;;;2.90;75.12;94366.13;4973755;28;20212;-69
2023/12/21 04:16:03;;;;;;;17.30;15.47;;;;;;;2.86;75.04;94362.13;4988381;28;20286;-70
2023/12/21 04:18:30;;;;;;;18.53;15.67;;;;;;;2.96;75.14;94376.03;4988357;28;20348;-69
2023/12/21 04:20:55;;;;;;;16.57;14.40;;;;;;;2.93;74.29;94368.50;4978489;28;20219;-69
2023/12/21 04:23:21;;;;;;;16.33;14.47;;;;;;;3.03;74.79;94368.59;4984336;28;20220;-69
2023/12/21 04:25:47;;;;;;;17.60;14.33;;;;;;;3.00;74.12;94356.69;4973222;28;20228;-70
2023/12/21 04:28:13;;;;;;;14.57;12.40;;;;;;;2.96;73.78;94363.03;4969424;28;20223;-70
2023/12/21 04:30:38;;;;;;;15.07;13.00;;;;;;;2.79;74.41;94359.19;4990356;28;20183;-68
2023/12/21 04:33:04;;;;;;;13.97;12.27;;;;;;;2.95;73.95;94371.78;4991494;28;20225;-69
2023/12/21 04:35:29;;;;;;;14.60;12.63;;;;;;;2.97;73.61;94366.50;4977526;28;20219;-69
2023/12/21 04:37:54;;;;;;;13.67;11.90;;;;;;;2.94;73.83;94370.16;4984093;28;20238;-69
2023/12/21 04:40:20;;;;;;;14.13;12.17;;;;;;;3.02;73.47;94372.13;4987571;28;20215;-69
2023/12/21 04:42:51;;;;;;;17.37;13.03;;;;;;;3.00;73.62;94381.81;4988587;28;20194;-70
2023/12/21 04:45:17;;;;;;;15.33;13.30;;;;;;;3.03;73.36;94374.59;4974847;28;20223;-70
2023/12/21 04:47:43;;;;;;;14.70;12.77;;;;;;;3.10;73.35;94387.91;4993971;28;20229;-70
2023/12/21 04:50:08;;;;;;;14.97;12.40;;;;;;;2.98;73.55;94370.72;4969053;28;20250;-70
2023/12/21 04:52:34;;;;;;;15.23;12.60;;;;;;;2.95;73.54;94370.97;4984611;28;20211;-70
2023/12/21 04:55:00;;;;;;;15.40;12.00;;;;;;;2.98;73.56;94379.34;5005105;28;20211;-68
2023/12/21 04:57:25;;;;;;;14.87;13.10;;;;;;;2.95;73.46;94376.16;4984056;28;20203;-69
2023/12/21 04:59:51;;;;;;;14.03;12.43;;;;;;;2.94;73.64;94377.94;4985835;28;20215;-69
2023/12/21 05:02:16;;;;;;;13.87;11.37;;;;;;;2.95;73.64;94377.00;4972643;28;20227;-69
2023/12/21 05:04:41;;;;;;;13.33;11.13;;;;;;;2.99;73.35;94373.19;4978068;28;20214;-69
2023/12/21 05:07:10;;;;;;;13.80;11.10;;;;;;;3.06;73.04;94361.38;4984496;28;20235;-70
2023/12/21 05:09:35;;;;;;;12.90;11.43;;;;;;;3.01;72.70;94376.50;4990253;28;20187;-70
2023/12/21 05:12:01;;;;;;;12.60;10.23;;;;;;;3.20;72.48;94378.44;4989015;28;20281;-70
2023/12/21 05:14:27;;;;;;;13.23;11.10;;;;;;;3.20;72.01;94369.84;4960076;28;20216;-69
2023/12/21 05:16:52;;;;;;;12.30;10.33;;;;;;;3.19;71.94;94382.00;4972605;28;20223;-69
2023/12/21 05:19:18;;;;;;;13.33;11.40;;;;;;;3.22;71.60;94384.34;4987763;28;20315;-69
2023/12/21 05:21:43;;;;;;;12.47;11.17;;;;;;;3.26;71.49;94374.53;4988848;28;20190;-70
2023/12/21 05:24:09;;;;;;;14.17;11.37;;;;;;;3.27;71.83;94392.59;4992680;28;20226;-69
2023/12/21 05:26:34;;;;;;;12.93;10.77;;;;;;;3.35;71.37;94394.59;4990328;28;20227;-69
2023/12/21 05:29:01;;;;;;;13.03;10.67;;;;;;;3.29;71.47;94380.31;4970840;28;20226;-71
2023/12/21 05:31:27;;;;;;;12.03;10.70;;;;;;;3.18;71.67;94402.91;5004378;28;20269;-69
2023/12/21 05:33:53;;;;;;;12.10;10.30;;;;;;;3.23;71.05;94395.56;4988667;28;20184;-70
2023/12/21 05:36:20;;;;;;;12.40;11.10;;;;;;;3.26;71.38;94392.72;4997356;28;20222;-70
2023/12/21 05:38:45;;;;;;;13.00;10.80;;;;;;;3.20;70.94;94380.22;4995189;28;20230;-71
2023/12/21 05:41:11;;;;;;;13.43;10.97;;;;;;;3.18;71.23;94390.75;4973911;28;20231;-70
2023/12/21 05:43:37;;;;;;;11.30;9.73;;;;;;;3.22;71.04;94375.75;4980099;28;20317;-70
2023/12/21 05:46:04;;;;;;;12.43;10.07;;;;;;;3.26;70.58;94382.31;4982138;28;20202;-70
2023/12/21 05:48:29;;;;;;;11.83;10.17;;;;;;;3.33;70.59;94382.69;4985475;28;20215;-70
2023/12/21 05:50:55;;;;;;;12.63;10.30;;;;;;;3.31;70.34;94382.78;4966963;28;20228;-70
2023/12/21 05:53:20;;;;;;;13.77;10.87;;;;;;;3.27;70.79;94381.41;4986667;28;20247;-69
2023/12/21 05:55:46;;;;;;;12.77;10.83;;;;;;;3.25;70.74;94372.88;4990752;28;20226;-69
2023/12/21 05:58:11;;;;;;;12.67;11.37;;;;;;;3.25;71.07;94376.31;4991985;28;20237;-70
2023/12/21 06:00:37;;;;;;;13.50;11.23;;;;;;;3.24;71.03;94382.47;4991871;28;20197;-70
2023/12/21 06:03:03;;;;;;;13.40;11.97;;;;;;;3.22;70.93;94383.53;4986591;28;20222;-70
2023/12/21 06:05:29;;;;;;;14.50;11.20;;;;;;;3.19;71.30;94373.41;5004355;28;20305;-71
2023/12/21 06:07:54;;;;;;;13.63;12.03;;;;;;;3.22;71.14;94380.94;4976699;28;20232;-70
2023/12/21 06:10:20;;;;;;;13.47;11.23;;;;;;;3.19;70.90;94381.19;4975247;28;20228;-69
2023/12/21 06:12:45;;;;;;;12.63;11.33;;;;;;;3.22;70.94;94386.13;4967559;28;20192;-70
2023/12/21 06:15:11;;;;;;;14.83;12.10;;;;;;;3.28;70.97;94383.03;4994391;28;20219;-71
2023/12/21 06:17:36;;;;;;;14.70;11.80;;;;;;;3.32;70.55;94384.44;4990863;28;20269;-70
2023/12/21 06:20:02;;;;;;;13.10;11.57;;;;;;;3.36;70.62;94383.25;4994612;28;20220;-70
2023/12/21 06:22:28;;;;;;;15.30;12.20;;;;;;;3.36;70.53;94385.03;4993462;28;20218;-71
2023/12/21 06:24:53;;;;;;;13.47;11.07;;;;;;;3.41;70.54;94386.28;4989522;28;20190;-70
2023/12/21 06:27:18;;;;;;;15.30;13.03;;;;;;;3.45;70.51;94382.50;4992023;28;20231;-69
2023/12/21 06:29:44;;;;;;;14.80;12.60;;;;;;;3.39;70.14;94375.19;4982712;28;20222;-70
2023/12/21 06:32:10;;;;;;;12.90;10.90;;;;;;;3.46;70.16;94391.94;4993731;28;20226;-69
2023/12/21 06:34:36;;;;;;;12.33;11.00;;;;;;;3.43;70.21;94387.00;4982555;28;20246;-70
2023/12/21 06:37:03;;;;;;;13.57;11.50;;;;;;;3.35;69.74;94375.59;4967033;28;20211;-70
2023/12/21 06:39:29;;;;;;;12.50;11.03;;;;;;;3.41;69.22;94369.88;4985286;28;20183;-70
2023/12/21 06:41:54;;;;;;;12.37;10.37;;;;;;;3.46;69.07;94388.53;4987296;28;20288;-70
2023/12/21 06:44:20;;;;;;;14.77;11.30;;;;;;;3.41;69.05;94381.09;4982760;28;20249;-69
2023/12/21 06:46:46;;;;;;;13.70;10.80;;;;;;;3.50;68.80;94393.38;4985400;28;20221;-70
2023/12/21 06:49:12;;;;;;;12.40;10.40;;;;;;;3.69;67.72;94391.88;4987044;28;20229;-69
2023/12/21 06:51:37;;;;;;;12.53;9.87;;;;;;;3.55;68.12;94385.19;4985443;28;20184;-70
2023/12/21 06:54:04;;;;;;;12.20;10.33;;;;;;;3.64;67.73;94396.63;5000076;28;20242;-70
2023/12/21 06:56:29;;;;;;;11.47;9.40;;;;;;;3.79;67.33;94402.31;4995456;28;20351;-70
2023/12/21 06:58:55;;;;;;;11.80;9.63;;;;;;;3.82;67.01;94394.28;4987848;28;20227;-70
2023/12/21 07:01:27;;;;;;;11.80;10.00;;;;;;;3.85;66.69;94402.66;4995444;28;20305;-71
2023/12/21 07:03:53;;;;;;;11.93;10.07;;;;;;;3.91;66.32;94386.53;4991929;28;20183;-69
2023/12/21 07:06:19;;;;;;;13.03;10.07;;;;;;;3.84;66.37;94384.56;4981441;28;20233;-70
2023/12/21 07:08:44;;;;;;;11.20;9.93;;;;;;;3.91;66.15;94386.53;4997086;28;20234;-71
2023/12/21 07:11:10;;;;;;;11.60;9.43;;;;;;;3.92;65.97;94387.38;4972826;28;20298;-71
2023/12/21 07:13:35;;;;;;;10.97;8.93;;;;;;;3.98;65.86;94394.66;4972944;28;20211;-70
2023/12/21 07:16:02;;;;;;;11.90;8.73;;;;;;;4.01;65.26;94385.78;4984732;28;20188;-70
2023/12/21 07:18:28;;;;;;;10.90;9.73;;;;;;;3.98;65.40;94384.25;4980670;28;20230;-70
2023/12/21 07:20:53;;;;;;;9.80;8.37;;;;;;;3.94;65.66;94383.69;4987849;28;20222;-70
2023/12/21 07:23:18;;;;;;;10.67;9.57;;;;;;;3.92;65.57;94377.78;4989053;28;20306;-70
2023/12/21 07:25:44;;;;;;;10.27;8.77;;;;;;;3.89;65.19;94387.63;4992626;28;20219;-70
2023/12/21 07:28:09;;;;;;;9.83;8.40;;;;;;;3.96;64.97;94389.59;4985088;28;20226;-70
2023/12/21 07:30:35;;;;;;;10.97;9.10;;;;;;;4.16;64.88;94405.31;4987469;28;20179;-70
2023/12/21 07:33:00;;;;;;;10.13;8.87;;;;;;;4.20;64.25;94396.31;4967270;28;20216;-70
2023/12/21 07:35:25;;;;;;;10.90;9.40;;;;;;;4.09;64.70;94404.16;4982617;28;20215;-70
2023/12/21 07:37:51;;;;;;;12.77;9.77;;;;;;;4.19;64.62;94411.06;4981935;28;20223;-69
2023/12/21 07:40:16;;;;;;;12.40;9.83;;;;;;;4.13;64.21;94398.59;4989535;28;20294;-71
2023/12/21 07:42:42;;;;;;;11.37;9.07;;;;;;;4.18;63.85;94396.44;4988034;28;20283;-71
2023/12/21 07:45:07;;;;;;;9.77;8.67;;;;;;;4.49;63.25;94400.81;4984257;28;20222;-70
2023/12/21 07:47:33;;;;;;;11.40;9.17;;;;;;;4.23;63.74;94411.66;4985894;28;20228;-71
2023/12/21 07:49:59;;;;;;;11.17;9.30;;;;;;;4.36;63.05;94412.28;4985268;28;20294;-69
2023/12/21 07:52:24;;;;;;;11.50;9.27;;;;;;;4.40;63.10;94418.06;4959033;28;20218;-71
2023/12/21 07:54:50;;;;;;;10.33;9.20;;;;;;;4.42;63.11;94413.56;4986085;28;20191;-72
2023/12/21 07:57:16;;;;;;;8.73;7.83;;;;;;;4.54;62.36;94411.69;4984755;28;20198;-73
2023/12/21 07:59:41;;;;;;;8.33;7.17;;;;;;;4.43;61.13;94412.59;4987545;28;20222;-72
2023/12/21 08:02:06;;;;;;;9.50;6.90;;;;;;;4.43;61.16;94408.19;4994314;28;20223;-72
2023/12/21 08:04:32;;;;;;;11.70;8.23;;;;;;;4.41;61.59;94410.13;4993086;28;20241;-73
2023/12/21 08:06:58;;;;;;;8.77;7.70;;;;;;;4.38;61.44;94426.00;4988073;28;20234;-72
2023/12/21 08:09:24;;;;;;;8.90;8.00;;;;;;;4.40;61.19;94408.47;4984857;28;20191;-73
2023/12/21 08:11:49;;;;;;;10.47;7.30;;;;;;;4.30;61.45;94417.16;4986255;28;20223;-71
2023/12/21 08:14:15;;;;;;;10.17;7.90;;;;;;;4.34;61.53;94426.38;4989607;28;20269;-70
2023/12/21 08:16:40;;;;;;;11.80;7.70;;;;;;;4.31;61.86;94409.25;4984331;28;20215;-70
2023/12/21 08:19:06;;;;;;;11.27;8.03;;;;;;;4.35;61.41;94418.44;4988067;28;20254;-71
2023/12/21 08:21:31;;;;;;;10.20;8.77;;;;;;;4.55;61.77;94421.16;4984279;28;20278;-72
2023/12/21 08:23:57;;;;;;;10.97;8.10;;;;;;;4.71;61.17;94431.09;4966370;28;20222;-70
2023/12/21 08:26:22;;;;;;;10.37;8.23;;;;;;;4.64;61.09;94426.38;4975396;28;20302;-71
2023/12/21 08:28:48;;;;;;;9.53;7.77;;;;;;;4.69;60.55;94427.78;4989096;28;20227;-70
2023/12/21 08:31:24;;;;;;;8.80;7.20;;;;;;;4.72;60.49;94420.53;4984237;28;20226;-67
2023/12/21 08:33:50;;;;;;;9.67;7.87;;;;;;;4.83;60.23;94417.00;5002200;28;20189;-71
2023/12/21 08:36:15;;;;;;;11.67;8.50;;;;;;;4.95;59.50;94422.97;4985028;28;20270;-68
2023/12/21 08:38:41;;;;;;;9.40;7.93;;;;;;;4.95;59.39;94442.03;4980743;28;20315;-68
2023/12/21 08:41:07;;;;;;;8.70;6.83;;;;;;;4.74;59.58;94434.25;4998386;28;20226;-69
2023/12/21 08:43:32;;;;;;;8.83;6.87;;;;;;;4.68;59.67;94415.72;4985767;28;20230;-70
2023/12/21 08:45:58;;;;;;;8.57;7.27;;;;;;;4.91;59.36;94413.75;4995922;28;20190;-72
2023/12/21 08:48:23;;;;;;;8.77;6.77;;;;;;;4.99;58.86;94409.53;4984831;28;20207;-70
2023/12/21 08:50:49;;;;;;;9.27;7.70;;;;;;;5.01;58.80;94404.19;4986891;28;20310;-69
2023/12/21 08:53:14;;;;;;;9.33;7.30;;;;;;;5.27;58.33;94409.75;4996513;28;20226;-71
2023/12/21 08:55:39;;;;;;;8.33;7.30;;;;;;;5.30;58.18;94394.66;4997151;28;20229;-70
2023/12/21 08:58:05;;;;;;;10.37;7.63;;;;;;;5.33;58.09;94388.34;4986673;28;20296;-69
2023/12/21 09:00:30;;;;;;;10.23;7.83;;;;;;;5.40;57.98;94386.00;4997653;28;20184;-67
2023/12/21 09:02:56;;;;;;;9.13;7.77;;;;;;;5.50;57.73;94384.22;4982585;28;20230;-69
2023/12/21 09:05:23;;;;;;;8.27;7.47;;;;;;;5.52;57.27;94398.78;4991435;28;20282;-72
2023/12/21 09:07:48;;;;;;;8.60;7.67;;;;;;;5.48;57.49;94375.72;4986500;28;20219;-71
2023/12/21 09:10:14;;;;;;;9.47;7.80;;;;;;;5.54;56.93;94380.41;4986337;28;20234;-69
2023/12/21 09:12:39;;;;;;;8.33;7.43;;;;;;;5.65;56.61;94364.63;4984251;28;20187;-77
2023/12/21 09:15:06;;;;;;;7.57;6.77;;;;;;;5.77;56.60;94373.09;4974119;28;20314;-77
2023/12/21 09:17:31;;;;;;;7.93;7.00;;;;;;;5.81;56.84;94369.28;4987080;28;20227;-77
2023/12/21 09:19:57;;;;;;;10.50;7.13;;;;;;;5.78;56.39;94368.75;4977337;28;20219;-77
2023/12/21 09:22:22;;;;;;;6.70;5.87;;;;;;;5.70;56.24;94357.19;4993521;28;20228;-76
2023/12/21 09:24:48;;;;;;;7.80;5.57;;;;;;;5.73;56.44;94361.31;4994041;28;20187;-75
2023/12/21 09:27:14;;;;;;;7.70;5.67;;;;;;;5.65;56.25;94366.41;4991317;28;20219;-76
2023/12/21 09:29:40;;;;;;;6.57;5.87;;;;;;;5.85;56.03;94368.00;5007357;28;20238;-75
2023/12/21 09:32:06;;;;;;;7.40;6.60;;;;;;;5.78;56.43;94340.03;4985158;28;20219;-69
2023/12/21 09:34:31;;;;;;;6.73;5.90;;;;;;;5.92;55.62;94355.25;4972733;28;20220;-70
2023/12/21 09:36:57;;;;;;;6.50;5.90;;;;;;;6.05;55.71;94355.81;4979367;28;20195;-72
2023/12/21 09:39:23;;;;;;;7.87;6.47;;;;;;;6.09;55.40;94338.88;4995587;28;20218;-71
2023/12/21 09:41:49;;;;;;;8.23;5.90;;;;;;;6.10;55.22;94340.56;4985965;28;20248;-71
2023/12/21 09:44:17;;;;;;;7.60;5.67;;;;;;;5.99;55.42;94353.78;4987442;28;20219;-72
2023/12/21 09:46:48;;;;;;;6.47;5.83;;;;;;;5.93;55.47;94338.63;4989461;28;20285;-70
2023/12/21 09:49:16;;;;;;;6.30;5.63;;;;;;;5.91;55.17;94338.78;4974283;28;20227;-70
2023/12/21 09:51:46;;;;;;;7.53;5.53;;;;;;;5.82;55.52;94321.34;4978604;28;20199;-70
2023/12/21 09:54:14;;;;;;;6.70;5.60;;;;;;;5.87;55.48;94319.13;4994281;28;20239;-69
2023/12/21 09:56:40;;;;;;;7.00;5.63;;;;;;;5.95;55.81;94313.25;4986834;28;20302;-69
2023/12/21 09:59:07;;;;;;;6.60;5.47;;;;;;;6.11;55.22;94312.66;4982999;28;20219;-70
2023/12/21 10:01:33;;;;;;;7.07;5.40;;;;;;;6.38;54.82;94317.91;4986940;28;20211;-71
2023/12/21 10:03:59;;;;;;;8.27;5.87;;;;;;;6.50;54.39;94299.47;4988764;28;20195;-70
2023/12/21 10:06:26;;;;;;;6.87;6.17;;;;;;;6.71;53.70;94302.66;4986353;28;20258;-71
2023/12/21 10:08:52;;;;;;;6.10;5.50;;;;;;;6.67;53.74;94290.84;4986241;28;20246;-69
2023/12/21 10:11:19;;;;;;;6.73;5.57;;;;;;;6.73;53.42;94286.84;4986570;28;20228;-71
2023/12/21 10:13:48;;;;;;;8.07;6.23;;;;;;;6.80;52.94;94272.22;4963139;28;20227;-70
2023/12/21 10:16:14;;;;;;;6.40;5.20;;;;;;;6.85;53.03;94275.22;4979573;28;20224;-71
2023/12/21 10:18:40;;;;;;;6.17;5.27;;;;;;;7.03;52.80;94270.84;4987654;28;20195;-71
2023/12/21 10:21:08;;;;;;;7.43;5.53;;;;;;;6.93;52.83;94275.31;4984802;28;20302;-71
2023/12/21 10:23:33;;;;;;;6.60;5.73;;;;;;;7.12;52.19;94270.91;4980903;28;20343;-72
2023/12/21 10:25:59;;;;;;;7.93;5.33;;;;;;;7.10;53.01;94265.81;4987032;28;20244;-74
2023/12/21 10:28:25;;;;;;;6.27;5.63;;;;;;;7.14;52.51;94264.56;4988459;28;20227;-75
2023/12/21 10:30:58;;;;;;;7.73;6.43;;;;;;;7.33;51.60;94253.13;4995801;28;20264;-75
2023/12/21 10:33:27;;;;;;;6.60;5.70;;;;;;;7.28;51.72;94250.97;4989846;28;20196;-74
2023/12/21 10:35:53;;;;;;;5.97;5.37;;;;;;;7.21;51.84;94244.69;4985596;28;20269;-76
2023/12/21 10:38:19;;;;;;;6.30;5.33;;;;;;;7.29;51.92;94238.69;4985857;28;20251;-74
2023/12/21 10:40:46;;;;;;;10.17;5.80;;;;;;;7.44;51.60;94231.97;4985329;28;20231;-75
2023/12/21 10:43:14;;;;;;;6.20;5.57;;;;;;;7.32;51.38;94230.53;4991710;28;20239;-76
2023/12/21 10:45:43;;;;;;;6.70;5.00;;;;;;;7.51;51.18;94230.41;4990257;28;20184;-73
2023/12/21 10:48:12;;;;;;;6.10;5.40;;;;;;;7.82;50.68;94223.88;4988561;28;20220;-75
2023/12/21 10:50:38;;;;;;;6.10;5.00;;;;;;;8.12;49.78;94223.38;4969469;28;20212;-76
2023/12/21 10:53:04;;;;;;;6.30;5.30;;;;;;;8.29;49.28;94221.69;4990954;28;20231;-75
2023/12/21 10:55:30;;;;;;;6.33;5.30;;;;;;;8.27;48.90;94202.69;4987651;28;20227;-76
2023/12/21 10:57:56;;;;;;;8.60;6.10;;;;;;;8.35;48.79;94196.66;4979105;28;20190;-75
2023/12/21 11:00:22;;;;;;;7.20;5.77;;;;;;;7.97;49.37;94196.16;4970838;28;20183;-74
2023/12/21 11:02:48;;;;;;;4.90;4.40;;;;;;;7.70;49.52;94195.34;4966043;28;20247;-75
2023/12/21 11:05:22;;;;;;;6.63;4.83;;;;;;;7.62;49.76;94182.22;4971350;28;20223;-76
2023/12/21 11:07:53;;;;;;;6.97;4.90;;;;;;;7.54;49.74;94183.94;4983421;28;20230;-74
2023/12/21 11:10:27;;;;;;;6.27;4.87;;;;;;;7.57;50.17;94181.06;4988261;28;20246;-71
2023/12/21 11:12:53;;;;;;;10.63;5.43;;;;;;;7.58;50.19;94178.25;4988445;28;20195;-76
2023/12/21 11:15:20;;;;;;;7.83;4.83;;;;;;;7.62;50.43;94182.22;4986055;28;20198;-69
2023/12/21 11:18:09;;;;;;;7.10;5.33;;;;;;;7.69;50.19;94182.41;4994736;28;20577;-73
2023/12/21 11:20:43;;;;;;;6.47;4.70;;;;;;;7.70;49.78;94171.00;4966070;28;20232;-69
2023/12/21 11:23:09;;;;;;;5.50;4.80;;;;;;;7.70;49.52;94171.00;4982349;28;20310;-72